Time;durP1;ratioP1;P1;durP2;ratioP2;P2;SDS_P1;SDS_P2;PMS_P1;PMS_P2;Temp;Humidity;BMP_temperature;BMP_pressure;BME280_temperature;BME280_humidity;BME280_pressure;Samples;Min_cycle;Max_cycle;Signal;HPM_P1;HPM_P2
2024/04/09 00:02:11;;;;;;;;;;;;;;;13.57;100.00;99849.97;5484363;26;20371;-72
2024/04/09 00:04:36;;;;;;;;;;;;;;;13.48;100.00;99847.66;5467992;26;19928;-72
2024/04/09 00:07:02;;;;;;;;;;;;;;;13.36;100.00;99846.84;5473365;26;20011;-72
2024/04/09 00:09:30;;;;;;;;;;;;;;;13.29;100.00;99846.16;5466617;26;19935;-73
2024/04/09 00:11:55;;;;;;;;;;;;;;;13.20;100.00;99845.69;5472552;26;19939;-72
2024/04/09 00:14:20;;;;;;;;;;;;;;;13.11;100.00;99847.97;5456568;26;19968;-72
2024/04/09 00:16:47;;;;;;;;;;;;;;;13.02;100.00;99849.41;5464429;26;19928;-71
2024/04/09 00:19:14;;;;;;;;;;;;;;;12.97;100.00;99863.59;5481655;26;19928;-71
2024/04/09 00:21:42;;;;;;;;;;;;;;;12.95;100.00;99854.09;5482373;26;19928;-72
2024/04/09 00:24:07;;;;;;;;;;;;;;;12.86;100.00;99850.94;5480897;26;19928;-72
2024/04/09 00:26:32;;;;;;;;;;;;;;;12.86;100.00;99854.47;5482459;26;20372;-71
2024/04/09 00:28:57;;;;;;;;;;;;;;;13.01;100.00;99858.56;5471885;26;19929;-72
2024/04/09 00:31:24;;;;;;;;;;;;;;;13.29;100.00;99865.06;5481961;26;19928;-71
2024/04/09 00:33:49;;;;;;;;;;;;;;;13.49;100.00;99868.22;5469825;26;19933;-71
2024/04/09 00:36:15;;;;;;;;;;;;;;;13.62;100.00;99860.88;5460567;26;19935;-72
2024/04/09 00:38:46;;;;;;;;;;;;;;;13.61;100.00;99857.34;5471663;26;19936;-71
2024/04/09 00:41:12;;;;;;;;;;;;;;;13.65;100.00;99863.09;5479766;26;19927;-71
2024/04/09 00:43:38;;;;;;;;;;;;;;;13.63;100.00;99855.22;5475918;26;19934;-71
2024/04/09 00:46:05;;;;;;;;;;;;;;;13.58;100.00;99857.03;5477870;26;20017;-71
2024/04/09 00:48:30;;;;;;;;;;;;;;;13.51;100.00;99859.84;5456459;26;20363;-71
2024/04/09 00:50:56;;;;;;;;;;;;;;;13.53;100.00;99873.94;5474665;26;19933;-71
2024/04/09 00:53:22;;;;;;;;;;;;;;;13.60;100.00;99876.50;5482564;26;19931;-71
2024/04/09 00:55:47;;;;;;;;;;;;;;;13.60;100.00;99881.91;5461945;26;19927;-71
2024/04/09 00:58:12;;;;;;;;;;;;;;;13.61;100.00;99875.44;5486887;26;19928;-70
2024/04/09 01:00:40;;;;;;;;;;;;;;;13.60;100.00;99873.81;5466504;26;19997;-70
2024/04/09 01:03:06;;;;;;;;;;;;;;;13.58;100.00;99878.66;5471502;26;19968;-72
2024/04/09 01:05:31;;;;;;;;;;;;;;;13.58;100.00;99881.38;5474088;26;19928;-73
2024/04/09 01:07:57;;;;;;;;;;;;;;;13.53;100.00;99870.44;5464824;26;20339;-73
2024/04/09 01:10:22;;;;;;;;;;;;;;;13.44;100.00;99873.50;5465924;26;19935;-72
2024/04/09 01:12:47;;;;;;;;;;;;;;;13.42;100.00;99883.75;5478151;26;19940;-71
2024/04/09 01:15:13;;;;;;;;;;;;;;;13.42;100.00;99893.75;5461573;26;19928;-72
2024/04/09 01:17:38;;;;;;;;;;;;;;;13.54;100.00;99893.72;5479490;26;19928;-72
2024/04/09 01:20:07;;;;;;;;;;;;;;;13.59;100.00;99885.72;5475514;26;19928;-71
2024/04/09 01:22:32;;;;;;;;;;;;;;;13.60;100.00;99881.91;5480138;26;20645;-71
2024/04/09 01:24:57;;;;;;;;;;;;;;;13.60;100.00;99890.03;5480889;26;19927;-71
2024/04/09 01:27:23;;;;;;;;;;;;;;;13.49;100.00;99887.13;5488637;26;19931;-71
2024/04/09 01:29:49;;;;;;;;;;;;;;;13.51;100.00;99896.91;5480764;26;19932;-71
2024/04/09 01:32:14;;;;;;;;;;;;;;;13.51;100.00;99913.13;5489427;26;20016;-72
2024/04/09 01:34:39;;;;;;;;;;;;;;;13.54;100.00;99931.56;5494768;26;20011;-72
2024/04/09 01:37:05;;;;;;;;;;;;;;;13.54;100.00;99942.38;5473567;26;20466;-71
2024/04/09 01:39:30;;;;;;;;;;;;;;;13.42;100.00;99954.03;5476785;26;19954;-72
2024/04/09 01:41:55;;;;;;;;;;;;;;;13.38;100.00;99957.44;5473912;26;19992;-72
2024/04/09 01:44:23;;;;;;;;;;;;;;;13.24;100.00;99954.19;5471910;26;19964;-71
2024/04/09 01:46:49;;;;;;;;;;;;;;;13.10;100.00;99953.59;5471149;26;19940;-72
2024/04/09 01:49:18;;;;;;;;;;;;;;;12.98;100.00;99961.69;5455896;26;19934;-71
2024/04/09 01:51:44;;;;;;;;;;;;;;;12.89;100.00;99951.22;5485485;26;20059;-71
2024/04/09 01:54:09;;;;;;;;;;;;;;;12.88;100.00;99946.88;5477592;26;19939;-72
2024/04/09 01:56:35;;;;;;;;;;;;;;;12.91;100.00;99945.59;5469784;26;20364;-72
2024/04/09 01:59:01;;;;;;;;;;;;;;;13.00;100.00;99944.19;5484250;26;20248;-72
2024/04/09 02:01:26;;;;;;;;;;;;;;;13.14;100.00;99969.09;5471761;26;20013;-72
2024/04/09 02:03:56;;;;;;;;;;;;;;;13.12;100.00;99952.28;5465041;26;20681;-72
2024/04/09 02:06:22;;;;;;;;;;;;;;;13.08;100.00;99940.31;5481846;26;19928;-72
2024/04/09 02:08:47;;;;;;;;;;;;;;;12.93;100.00;99926.44;5471873;26;20244;-72
2024/04/09 02:11:12;;;;;;;;;;;;;;;12.79;100.00;99925.88;5480359;26;19928;-72
2024/04/09 02:13:41;;;;;;;;;;;;;;;12.86;100.00;99931.97;5462458;26;20355;-73
2024/04/09 02:16:09;;;;;;;;;;;;;;;12.72;100.00;99928.66;5458291;26;19941;-72
2024/04/09 02:18:37;;;;;;;;;;;;;;;12.58;100.00;99920.81;5482244;26;19935;-72
2024/04/09 02:21:03;;;;;;;;;;;;;;;12.41;100.00;99909.03;5464762;26;19928;-72
2024/04/09 02:23:28;;;;;;;;;;;;;;;12.28;100.00;99910.91;5454031;26;19929;-72
2024/04/09 02:25:54;;;;;;;;;;;;;;;12.12;100.00;99901.59;5460574;26;19935;-72
2024/04/09 02:28:19;;;;;;;;;;;;;;;11.98;100.00;99901.00;5465090;26;19928;-72
2024/04/09 02:30:44;;;;;;;;;;;;;;;11.86;100.00;99896.56;5477061;26;19996;-72
2024/04/09 02:33:09;;;;;;;;;;;;;;;11.78;100.00;99897.72;5467671;26;19936;-72
2024/04/09 02:35:34;;;;;;;;;;;;;;;11.67;100.00;99905.50;5485596;26;19932;-74
2024/04/09 02:38:00;;;;;;;;;;;;;;;11.81;100.00;99916.94;5486488;26;19928;-71
2024/04/09 02:40:25;;;;;;;;;;;;;;;11.97;100.00;99911.97;5485660;26;20359;-71
2024/04/09 02:42:50;;;;;;;;;;;;;;;11.83;100.00;99903.22;5472234;26;19928;-71
2024/04/09 02:45:16;;;;;;;;;;;;;;;11.98;100.00;99919.88;5487883;26;19935;-71
2024/04/09 02:47:41;;;;;;;;;;;;;;;11.91;100.00;99919.09;5467379;26;19927;-71
2024/04/09 02:50:06;;;;;;;;;;;;;;;12.03;100.00;99921.03;5463073;26;19998;-71
2024/04/09 02:52:31;;;;;;;;;;;;;;;12.16;100.00;99931.66;5462287;26;19928;-71
2024/04/09 02:55:03;;;;;;;;;;;;;;;12.36;100.00;99935.91;5480769;26;19928;-71
2024/04/09 02:57:30;;;;;;;;;;;;;;;12.30;100.00;99928.75;5466886;26;19932;-71
2024/04/09 02:59:56;;;;;;;;;;;;;;;12.47;100.00;99945.06;5485473;26;19935;-71
2024/04/09 03:02:22;;;;;;;;;;;;;;;12.57;100.00;99943.47;5465891;26;19998;-72
2024/04/09 03:04:47;;;;;;;;;;;;;;;12.68;100.00;99951.81;5481920;26;19961;-71
2024/04/09 03:07:12;;;;;;;;;;;;;;;12.75;100.00;99952.50;5453152;26;19928;-71
2024/04/09 03:09:38;;;;;;;;;;;;;;;12.69;100.00;99948.88;5481846;26;19944;-72
2024/04/09 03:12:03;;;;;;;;;;;;;;;12.81;100.00;99942.66;5487799;26;19932;-71
2024/04/09 03:14:28;;;;;;;;;;;;;;;12.90;100.00;99943.97;5467240;26;19936;-71
2024/04/09 03:16:54;;;;;;;;;;;;;;;12.98;100.00;99946.28;5480997;26;19931;-71
2024/04/09 03:19:19;;;;;;;;;;;;;;;13.04;100.00;99979.69;5483190;26;20375;-71
2024/04/09 03:21:44;;;;;;;;;;;;;;;13.11;100.00;99990.38;5470442;26;19959;-71
2024/04/09 03:24:12;;;;;;;;;;;;;;;13.07;100.00;99991.88;5473257;26;19929;-71
2024/04/09 03:26:37;;;;;;;;;;;;;;;13.09;100.00;99993.28;5464129;26;20359;-71
2024/04/09 03:29:03;;;;;;;;;;;;;;;13.08;100.00;99982.72;5472699;26;19935;-71
2024/04/09 03:31:28;;;;;;;;;;;;;;;13.03;100.00;99986.13;5474489;26;20426;-71
2024/04/09 03:33:53;;;;;;;;;;;;;;;13.01;100.00;99983.66;5455074;26;20360;-71
2024/04/09 03:36:19;;;;;;;;;;;;;;;13.02;100.00;99993.41;5470979;26;19928;-72
2024/04/09 03:38:44;;;;;;;;;;;;;;;13.07;100.00;99992.69;5477780;26;19947;-71
2024/04/09 03:41:09;;;;;;;;;;;;;;;13.06;100.00;100001.03;5480956;26;19928;-71
2024/04/09 03:43:35;;;;;;;;;;;;;;;12.95;100.00;99999.97;5465746;26;20344;-71
2024/04/09 03:46:03;;;;;;;;;;;;;;;12.98;100.00;99983.31;5479584;26;19929;-71
2024/04/09 03:48:31;;;;;;;;;;;;;;;12.85;100.00;99985.19;5472210;26;19935;-71
2024/04/09 03:50:57;;;;;;;;;;;;;;;12.95;100.00;100000.81;5461498;26;19935;-71
2024/04/09 03:53:22;;;;;;;;;;;;;;;12.97;100.00;99998.69;5455381;26;19929;-73
2024/04/09 03:55:57;;;;;;;;;;;;;;;13.00;100.00;100021.72;5480687;26;19927;-71
2024/04/09 03:58:23;;;;;;;;;;;;;;;12.98;100.00;100023.84;5483288;26;20062;-72
2024/04/09 04:00:55;;;;;;;;;;;;;;;12.87;100.00;100015.50;5466564;26;19935;-74
2024/04/09 04:03:21;;;;;;;;;;;;;;;12.84;100.00;100031.31;5468250;26;20022;-73
2024/04/09 04:05:50;;;;;;;;;;;;;;;12.80;100.00;100014.75;5479085;26;20073;-74
2024/04/09 04:08:15;;;;;;;;;;;;;;;12.76;100.00;100021.69;5467543;26;20333;-77
2024/04/09 04:10:40;;;;;;;;;;;;;;;12.72;100.00;100029.44;5473760;26;20030;-71
2024/04/09 04:13:06;;;;;;;;;;;;;;;12.78;100.00;100029.56;5474173;26;19928;-71
2024/04/09 04:15:31;;;;;;;;;;;;;;;12.80;100.00;100038.22;5473041;26;19947;-71
2024/04/09 04:17:56;;;;;;;;;;;;;;;12.83;100.00;100037.78;5471641;26;19928;-72
2024/04/09 04:20:21;;;;;;;;;;;;;;;12.83;100.00;100044.03;5477249;26;19947;-73
2024/04/09 04:22:46;;;;;;;;;;;;;;;12.80;100.00;100051.75;5475958;26;19928;-73
2024/04/09 04:25:12;;;;;;;;;;;;;;;12.81;100.00;100056.94;5487094;26;19928;-73
2024/04/09 04:27:37;;;;;;;;;;;;;;;12.80;100.00;100074.19;5482007;26;19928;-73
2024/04/09 04:30:02;;;;;;;;;;;;;;;12.82;100.00;100079.34;5458504;26;20287;-72
2024/04/09 04:32:27;;;;;;;;;;;;;;;12.85;100.00;100074.31;5480592;26;19928;-73
2024/04/09 04:34:53;;;;;;;;;;;;;;;12.86;100.00;100092.19;5475269;26;19929;-73
2024/04/09 04:37:18;;;;;;;;;;;;;;;12.87;100.00;100093.81;5471364;26;19935;-73
2024/04/09 04:39:43;;;;;;;;;;;;;;;12.92;100.00;100097.69;5461430;26;19936;-73
2024/04/09 04:42:09;;;;;;;;;;;;;;;12.93;100.00;100100.19;5458845;26;19928;-72
2024/04/09 04:44:35;;;;;;;;;;;;;;;12.96;100.00;100109.69;5474331;26;19935;-73
2024/04/09 04:47:01;;;;;;;;;;;;;;;12.95;100.00;100102.63;5467286;26;20256;-72
2024/04/09 04:49:26;;;;;;;;;;;;;;;12.99;100.00;100104.63;5463203;26;19935;-72
2024/04/09 04:51:52;;;;;;;;;;;;;;;12.97;100.00;100100.53;5450088;26;19932;-73
2024/04/09 04:54:17;;;;;;;;;;;;;;;12.92;100.00;100095.00;5478300;26;19982;-73
2024/04/09 04:56:43;;;;;;;;;;;;;;;12.94;100.00;100090.19;5485643;26;19928;-73
2024/04/09 04:59:08;;;;;;;;;;;;;;;12.90;100.00;100084.44;5483981;26;19935;-73
2024/04/09 05:01:36;;;;;;;;;;;;;;;12.86;100.00;100083.25;5467195;26;19997;-73
2024/04/09 05:04:01;;;;;;;;;;;;;;;12.79;100.00;100082.53;5464217;26;19936;-73
2024/04/09 05:06:26;;;;;;;;;;;;;;;12.79;100.00;100072.53;5478245;26;19927;-72
2024/04/09 05:08:52;;;;;;;;;;;;;;;12.77;100.00;100085.44;5474874;26;19935;-72
2024/04/09 05:11:17;;;;;;;;;;;;;;;12.69;100.00;100088.50;5480496;26;19956;-72
2024/04/09 05:13:42;;;;;;;;;;;;;;;12.64;100.00;100102.66;5468632;26;19935;-72
2024/04/09 05:16:08;;;;;;;;;;;;;;;12.76;100.00;100096.50;5461976;26;19933;-72
2024/04/09 05:18:33;;;;;;;;;;;;;;;12.65;100.00;100103.50;5457873;26;19928;-72
2024/04/09 05:20:58;;;;;;;;;;;;;;;12.69;100.00;100099.28;5456310;26;19937;-73
2024/04/09 05:23:23;;;;;;;;;;;;;;;12.64;100.00;100091.84;5468291;26;19996;-72
2024/04/09 05:25:49;;;;;;;;;;;;;;;12.64;100.00;100112.66;5477658;26;19935;-72
2024/04/09 05:28:14;;;;;;;;;;;;;;;12.54;100.00;100116.69;5464520;26;19992;-72
2024/04/09 05:30:39;;;;;;;;;;;;;;;12.45;100.00;100115.38;5453629;26;19928;-71
2024/04/09 05:33:05;;;;;;;;;;;;;;;12.55;100.00;100115.66;5475130;26;19996;-71
2024/04/09 05:35:30;;;;;;;;;;;;;;;12.53;100.00;100123.16;5461591;26;19929;-72
2024/04/09 05:37:55;;;;;;;;;;;;;;;12.59;100.00;100126.84;5476585;26;19996;-72
2024/04/09 05:40:23;;;;;;;;;;;;;;;12.59;100.00;100133.06;5477302;26;19928;-72
2024/04/09 05:42:51;;;;;;;;;;;;;;;12.64;100.00;100153.16;5466733;26;20395;-72
2024/04/09 05:45:18;;;;;;;;;;;;;;;12.70;100.00;100160.34;5466482;26;19979;-73
2024/04/09 05:47:43;;;;;;;;;;;;;;;12.70;100.00;100165.75;5456185;26;20296;-72
2024/04/09 05:50:08;;;;;;;;;;;;;;;12.50;100.00;100166.81;5453880;26;19937;-72
2024/04/09 05:52:35;;;;;;;;;;;;;;;12.48;100.00;100173.47;5457748;26;19996;-72
2024/04/09 05:55:00;;;;;;;;;;;;;;;12.50;100.00;100174.94;5487012;26;19964;-71
2024/04/09 05:57:25;;;;;;;;;;;;;;;12.63;100.00;100175.81;5465258;26;20360;-72
2024/04/09 05:59:52;;;;;;;;;;;;;;;12.71;100.00;100176.31;5464698;26;19937;-72
2024/04/09 06:02:17;;;;;;;;;;;;;;;12.77;100.00;100185.38;5476182;26;20294;-72
2024/04/09 06:04:42;;;;;;;;;;;;;;;12.57;100.00;100189.16;5474347;26;20388;-71
2024/04/09 06:07:07;;;;;;;;;;;;;;;12.67;100.00;100195.91;5483367;26;20051;-73
2024/04/09 06:09:33;;;;;;;;;;;;;;;12.50;100.00;100201.94;5487098;26;20237;-71
2024/04/09 06:11:58;;;;;;;;;;;;;;;12.60;100.00;100198.69;5480777;26;19944;-71
2024/04/09 06:14:24;;;;;;;;;;;;;;;12.70;100.00;100208.97;5484139;26;19928;-72
2024/04/09 06:16:49;;;;;;;;;;;;;;;12.41;100.00;100203.25;5464455;26;19929;-72
2024/04/09 06:19:14;;;;;;;;;;;;;;;12.36;100.00;100203.09;5453464;26;19965;-72
2024/04/09 06:21:42;;;;;;;;;;;;;;;12.51;100.00;100205.44;5469680;26;19928;-71
2024/04/09 06:24:07;;;;;;;;;;;;;;;12.38;100.00;100207.25;5456654;26;20022;-72
2024/04/09 06:26:32;;;;;;;;;;;;;;;12.43;100.00;100204.72;5461477;26;20251;-71
2024/04/09 06:28:58;;;;;;;;;;;;;;;12.44;100.00;100200.13;5475216;26;21750;-72
2024/04/09 06:31:23;;;;;;;;;;;;;;;12.43;100.00;100193.06;5462329;26;20819;-72
2024/04/09 06:33:49;;;;;;;;;;;;;;;12.16;100.00;100198.78;5477357;26;20340;-72
2024/04/09 06:36:14;;;;;;;;;;;;;;;12.05;100.00;100204.88;5466181;26;19928;-71
2024/04/09 06:38:40;;;;;;;;;;;;;;;12.06;100.00;100195.75;5484696;26;20537;-72
2024/04/09 06:41:11;;;;;;;;;;;;;;;12.18;100.00;100201.22;5482333;26;20259;-71
2024/04/09 06:43:37;;;;;;;;;;;;;;;12.17;100.00;100205.81;5504175;26;19957;-71
2024/04/09 06:46:02;;;;;;;;;;;;;;;12.17;100.00;100199.59;5487145;26;19936;-71
2024/04/09 06:48:28;;;;;;;;;;;;;;;12.30;100.00;100209.41;5468870;26;19933;-72
2024/04/09 06:50:53;;;;;;;;;;;;;;;12.27;100.00;100210.66;5482160;26;19943;-71
2024/04/09 06:53:18;;;;;;;;;;;;;;;12.01;100.00;100227.94;5481517;26;19928;-72
2024/04/09 06:55:44;;;;;;;;;;;;;;;11.93;100.00;100226.34;5471824;26;19943;-71
2024/04/09 06:58:10;;;;;;;;;;;;;;;12.06;100.00;100220.03;5484905;26;19974;-72
2024/04/09 07:00:35;;;;;;;;;;;;;;;12.09;100.00;100231.19;5485145;26;19928;-72
2024/04/09 07:03:04;;;;;;;;;;;;;;;11.91;100.00;100215.78;5498876;26;20393;-72
2024/04/09 07:05:29;;;;;;;;;;;;;;;11.98;100.00;100223.81;5487067;26;19935;-72
2024/04/09 07:07:55;;;;;;;;;;;;;;;11.78;100.00;100229.38;5466124;26;20036;-72
2024/04/09 07:10:23;;;;;;;;;;;;;;;11.76;100.00;100216.09;5484697;26;19993;-73
2024/04/09 07:12:50;;;;;;;;;;;;;;;11.81;100.00;100224.38;5468987;26;20295;-73
2024/04/09 07:15:15;;;;;;;;;;;;;;;11.88;100.00;100234.28;5482548;26;19935;-73
2024/04/09 07:17:40;;;;;;;;;;;;;;;11.72;100.00;100247.28;5472212;26;19928;-74
2024/04/09 07:20:11;;;;;;;;;;;;;;;11.70;100.00;100237.72;5484753;26;19940;-73
2024/04/09 07:22:37;;;;;;;;;;;;;;;11.72;100.00;100241.03;5487509;26;19927;-73
2024/04/09 07:25:02;;;;;;;;;;;;;;;11.59;100.00;100237.41;5486960;26;20312;-73
2024/04/09 07:27:27;;;;;;;;;;;;;;;11.82;100.00;100236.81;5460409;26;19929;-73
2024/04/09 07:29:52;;;;;;;;;;;;;;;11.77;100.00;100233.13;5488221;26;20360;-73
2024/04/09 07:32:18;;;;;;;;;;;;;;;11.50;100.00;100238.72;5474291;26;20376;-73
2024/04/09 07:34:46;;;;;;;;;;;;;;;11.62;96.37;100247.75;5472639;26;19935;-73
2024/04/09 07:37:11;;;;;;;;;;;;;;;11.51;95.38;100267.31;5487206;26;19928;-73
2024/04/09 07:39:36;;;;;;;;;;;;;;;11.66;96.00;100265.13;5488715;26;20232;-73
2024/04/09 07:42:01;;;;;;;;;;;;;;;11.71;94.02;100250.16;5469302;26;19997;-73
2024/04/09 07:44:27;;;;;;;;;;;;;;;11.91;92.81;100298.59;5483254;26;19943;-73
2024/04/09 07:46:52;;;;;;;;;;;;;;;12.07;89.36;100297.22;5488598;26;19982;-73
2024/04/09 07:49:18;;;;;;;;;;;;;;;12.36;85.96;100311.06;5487034;26;19956;-73
2024/04/09 07:51:43;;;;;;;;;;;;;;;12.74;83.62;100318.16;5478886;26;20312;-73
2024/04/09 07:54:08;;;;;;;;;;;;;;;13.57;78.02;100320.50;5484043;26;20264;-73
2024/04/09 07:56:34;;;;;;;;;;;;;;;13.53;76.01;100316.63;5487178;26;19939;-73
2024/04/09 07:59:00;;;;;;;;;;;;;;;13.56;73.51;100313.44;5477283;26;19929;-73
2024/04/09 08:01:25;;;;;;;;;;;;;;;13.43;75.14;100325.28;5474121;26;19960;-74
2024/04/09 08:03:51;;;;;;;;;;;;;;;12.85;76.15;100319.28;5461601;26;19928;-74
2024/04/09 08:06:16;;;;;;;;;;;;;;;12.36;78.25;100335.34;5487261;26;19928;-73
2024/04/09 08:08:41;;;;;;;;;;;;;;;12.23;79.83;100341.72;5477875;26;20312;-73
2024/04/09 08:11:07;;;;;;;;;;;;;;;12.30;79.39;100339.78;5473854;26;20362;-73
2024/04/09 08:13:35;;;;;;;;;;;;;;;12.27;81.07;100351.00;5490615;26;19928;-73
2024/04/09 08:16:00;;;;;;;;;;;;;;;12.11;80.90;100353.22;5496138;26;20001;-73
2024/04/09 08:18:26;;;;;;;;;;;;;;;11.80;83.54;100364.84;5477597;26;19936;-73
2024/04/09 08:20:51;;;;;;;;;;;;;;;12.29;80.87;100362.41;5494408;26;20021;-73
2024/04/09 08:23:17;;;;;;;;;;;;;;;12.19;82.37;100376.41;5489644;26;19928;-72
2024/04/09 08:25:44;;;;;;;;;;;;;;;11.82;84.56;100381.63;5489074;26;19932;-72
2024/04/09 08:28:09;;;;;;;;;;;;;;;12.25;83.66;100372.84;5488757;26;19936;-72
2024/04/09 08:30:34;;;;;;;;;;;;;;;12.37;81.22;100380.19;5486765;26;20004;-72
2024/04/09 08:33:00;;;;;;;;;;;;;;;12.51;82.91;100391.72;5472533;26;19935;-72
2024/04/09 08:35:25;;;;;;;;;;;;;;;12.75;81.18;100390.03;5485089;26;19928;-72
2024/04/09 08:37:50;;;;;;;;;;;;;;;12.98;77.09;100393.97;5485852;26;20384;-72
2024/04/09 08:40:17;;;;;;;;;;;;;;;12.70;78.56;100396.13;5472570;26;19928;-72
2024/04/09 08:42:44;;;;;;;;;;;;;;;13.00;78.47;100403.50;5486277;26;19928;-72
2024/04/09 08:45:14;;;;;;;;;;;;;;;12.94;77.16;100406.28;5487351;26;19958;-72
2024/04/09 08:47:39;;;;;;;;;;;;;;;12.96;71.73;100404.19;5486730;26;20340;-72
2024/04/09 08:50:04;;;;;;;;;;;;;;;12.97;71.58;100389.63;5485191;26;19981;-72
2024/04/09 08:52:32;;;;;;;;;;;;;;;13.63;68.70;100398.00;5484171;26;19940;-72
2024/04/09 08:54:57;;;;;;;;;;;;;;;13.17;71.01;100408.31;5452923;26;19928;-72
2024/04/09 08:57:23;;;;;;;;;;;;;;;13.03;64.67;100383.31;5458967;26;20301;-73
2024/04/09 08:59:48;;;;;;;;;;;;;;;12.59;67.42;100413.88;5486961;26;19934;-72
2024/04/09 09:02:14;;;;;;;;;;;;;;;12.37;68.71;100415.28;5486737;26;19928;-73
2024/04/09 09:04:40;;;;;;;;;;;;;;;12.43;68.58;100400.94;5485206;26;19928;-72
2024/04/09 09:07:22;;;;;;;;;;;;;;;12.45;69.52;100417.72;5451933;26;19929;-73
2024/04/09 09:09:47;;;;;;;;;;;;;;;12.79;68.19;100402.06;5479386;26;19928;-72
2024/04/09 09:12:13;;;;;;;;;;;;;;;13.32;64.36;100421.44;5486193;26;19935;-72
2024/04/09 09:14:38;;;;;;;;;;;;;;;13.50;63.97;100431.47;5486653;26;20360;-72
2024/04/09 09:17:07;;;;;;;;;;;;;;;14.25;62.19;100434.81;5487902;26;20039;-73
2024/04/09 09:19:36;;;;;;;;;;;;;;;15.19;60.04;100425.09;5461041;26;19971;-73
2024/04/09 09:22:10;;;;;;;;;;;;;;;16.15;54.10;100396.56;5468916;26;19928;-72
2024/04/09 09:24:36;;;;;;;;;;;;;;;16.42;53.95;100425.78;5482901;26;19928;-73
2024/04/09 09:27:03;;;;;;;;;;;;;;;16.90;52.33;100445.28;5485958;26;19928;-73
2024/04/09 09:29:29;;;;;;;;;;;;;;;16.24;52.48;100442.34;5486065;26;20313;-73
2024/04/09 09:31:54;;;;;;;;;;;;;;;13.96;62.32;100440.00;5486470;26;19934;-73
2024/04/09 09:34:38;;;;;;;;;;;;;;;13.11;67.20;100434.34;5475159;26;19928;-73
2024/04/09 09:37:06;;;;;;;;;;;;;;;14.04;64.20;100447.81;5475911;26;20382;-73
2024/04/09 09:39:32;;;;;;;;;;;;;;;14.39;63.10;100424.59;5482458;26;19935;-72
2024/04/09 09:41:57;;;;;;;;;;;;;;;14.83;61.28;100456.81;5465013;26;19952;-72
2024/04/09 09:44:24;;;;;;;;;;;;;;;14.26;61.72;100452.72;5448949;26;21609;-73
2024/04/09 09:46:49;;;;;;;;;;;;;;;13.82;64.27;100446.66;5453686;26;19928;-72
2024/04/09 09:49:16;;;;;;;;;;;;;;;13.50;66.45;100453.13;5473786;26;19935;-71
2024/04/09 09:51:41;;;;;;;;;;;;;;;13.53;66.93;100466.16;5469556;26;20387;-71
2024/04/09 09:54:06;;;;;;;;;;;;;;;13.29;68.04;100465.16;5462000;26;19940;-72
2024/04/09 09:56:32;;;;;;;;;;;;;;;13.22;69.35;100480.63;5466219;26;19937;-72
2024/04/09 09:58:57;;;;;;;;;;;;;;;13.05;69.54;100497.44;5447242;26;19940;-72
2024/04/09 10:01:23;;;;;;;;;;;;;;;12.84;71.99;100491.38;5471369;26;20331;-72
2024/04/09 10:03:50;;;;;;;;;;;;;;;12.77;72.00;100473.56;5452434;26;19957;-72
2024/04/09 10:06:15;;;;;;;;;;;;;;;12.72;72.90;100485.00;5449831;26;19929;-72
2024/04/09 10:08:41;;;;;;;;;;;;;;;12.08;75.94;100474.25;5458754;26;20064;-72
2024/04/09 10:11:06;;;;;;;;;;;;;;;12.32;72.86;100483.44;5468353;26;19928;-72
2024/04/09 10:13:32;;;;;;;;;;;;;;;12.61;71.71;100496.53;5485142;26;19938;-72
2024/04/09 10:15:57;;;;;;;;;;;;;;;12.93;69.83;100493.78;5488880;26;19997;-72
2024/04/09 10:18:37;;;;;;;;;;;;;;;13.43;67.17;100492.91;5477456;26;19940;-73
2024/04/09 10:21:03;;;;;;;;;;;;;;;13.44;64.92;100498.09;5476539;26;19928;-72
2024/04/09 10:23:28;;;;;;;;;;;;;;;13.60;65.73;100504.78;5468462;26;19935;-73
2024/04/09 10:25:57;;;;;;;;;;;;;;;13.68;64.06;100503.66;5482635;26;19956;-73
2024/04/09 10:28:29;;;;;;;;;;;;;;;14.36;60.63;100499.00;5482625;26;20366;-73
2024/04/09 10:30:54;;;;;;;;;;;;;;;14.08;60.96;100505.84;5487525;26;19958;-72
2024/04/09 10:33:28;;;;;;;;;;;;;;;13.93;61.77;100502.72;5490285;26;19934;-74
2024/04/09 10:36:03;;;;;;;;;;;;;;;14.03;62.48;100507.59;5502838;25;19928;-73
2024/04/09 10:38:31;;;;;;;;;;;;;;;14.37;60.37;100505.25;5472009;26;19928;-73
2024/04/09 10:41:00;;;;;;;;;;;;;;;14.03;62.25;100519.25;5469808;26;19928;-73
2024/04/09 10:43:29;;;;;;;;;;;;;;;14.78;58.29;100527.16;5477471;26;19936;-73
2024/04/09 10:45:54;;;;;;;;;;;;;;;14.83;57.96;100516.44;5474582;26;19928;-72
2024/04/09 10:48:21;;;;;;;;;;;;;;;14.53;58.61;100528.97;5471434;26;19932;-74
2024/04/09 10:50:46;;;;;;;;;;;;;;;13.84;60.71;100536.56;5482388;26;20279;-72
2024/04/09 10:53:15;;;;;;;;;;;;;;;13.28;62.73;100534.63;5470230;26;19932;-71
2024/04/09 10:55:40;;;;;;;;;;;;;;;13.35;60.39;100548.06;5483316;26;19936;-71
2024/04/09 10:58:05;;;;;;;;;;;;;;;14.21;56.89;100533.78;5485701;26;19997;-71
2024/04/09 11:00:33;;;;;;;;;;;;;;;14.84;53.50;100559.56;5485602;26;19936;-71
2024/04/09 11:02:58;;;;;;;;;;;;;;;14.56;54.01;100562.88;5474684;26;19928;-73
2024/04/09 11:05:24;;;;;;;;;;;;;;;14.65;50.72;100547.94;5511195;26;19974;-73
2024/04/09 11:07:49;;;;;;;;;;;;;;;14.50;51.73;100566.50;5487444;26;19996;-73
2024/04/09 11:10:15;;;;;;;;;;;;;;;14.43;53.21;100550.34;5486702;26;19939;-72
2024/04/09 11:12:45;;;;;;;;;;;;;;;14.00;52.79;100524.28;5486736;26;19935;-73
2024/04/09 11:15:11;;;;;;;;;;;;;;;13.30;54.57;100554.16;5466762;26;19935;-71
2024/04/09 11:17:37;;;;;;;;;;;;;;;13.16;54.55;100549.91;5455473;26;19929;-71
2024/04/09 11:20:09;;;;;;;;;;;;;;;13.13;56.80;100540.38;5489806;26;19928;-71
2024/04/09 11:22:35;;;;;;;;;;;;;;;12.94;57.58;100558.41;5479061;26;19936;-72
2024/04/09 11:25:00;;;;;;;;;;;;;;;12.76;57.90;100567.25;5483491;26;20043;-73
2024/04/09 11:27:29;;;;;;;;;;;;;;;12.47;61.39;100571.38;5463446;26;19936;-73
2024/04/09 11:29:57;;;;;;;;;;;;;;;12.78;60.32;100567.06;5481104;26;19956;-73
2024/04/09 11:32:22;;;;;;;;;;;;;;;13.29;60.82;100574.13;5473513;26;19935;-73
2024/04/09 11:34:47;;;;;;;;;;;;;;;13.34;60.58;100581.56;5490453;26;19934;-74
2024/04/09 11:37:13;;;;;;;;;;;;;;;13.30;60.06;100572.25;5486485;26;19928;-73
2024/04/09 11:39:38;;;;;;;;;;;;;;;13.12;59.47;100571.16;5487915;26;19996;-73
2024/04/09 11:42:03;;;;;;;;;;;;;;;13.14;59.61;100563.66;5486298;26;19928;-73
2024/04/09 11:44:32;;;;;;;;;;;;;;;13.16;60.29;100577.78;5461180;26;20332;-73
2024/04/09 11:46:57;;;;;;;;;;;;;;;13.41;59.82;100571.56;5464977;26;19929;-73
2024/04/09 11:49:22;;;;;;;;;;;;;;;13.31;59.52;100582.00;5480370;26;19935;-73
2024/04/09 11:51:47;;;;;;;;;;;;;;;13.23;58.62;100572.31;5485180;26;19942;-73
2024/04/09 11:54:13;;;;;;;;;;;;;;;13.14;58.86;100571.75;5460960;26;19929;-72
2024/04/09 11:56:41;;;;;;;;;;;;;;;13.36;59.16;100574.06;5472903;26;19943;-73
2024/04/09 11:59:06;;;;;;;;;;;;;;;14.03;56.21;100588.81;5463030;26;19932;-72
2024/04/09 12:01:32;;;;;;;;;;;;;;;14.46;54.12;100604.06;5486728;26;19993;-73
2024/04/09 12:03:57;;;;;;;;;;;;;;;14.93;51.96;100589.88;5485324;26;19928;-72
2024/04/09 12:06:23;;;;;;;;;;;;;;;14.76;51.23;100602.44;5463043;26;19998;-73
2024/04/09 12:08:48;;;;;;;;;;;;;;;14.65;52.02;100596.72;5462997;26;19938;-73
2024/04/09 12:11:13;;;;;;;;;;;;;;;14.69;49.50;100603.34;5478028;26;19928;-72
2024/04/09 12:13:39;;;;;;;;;;;;;;;14.53;50.92;100604.81;5474908;26;20368;-73
2024/04/09 12:16:04;;;;;;;;;;;;;;;14.03;51.88;100616.69;5474219;26;19927;-73
2024/04/09 12:18:31;;;;;;;;;;;;;;;14.37;51.98;100605.47;5486047;26;19934;-73
2024/04/09 12:20:56;;;;;;;;;;;;;;;14.53;51.15;100598.56;5462609;26;19928;-73
2024/04/09 12:23:21;;;;;;;;;;;;;;;13.90;52.52;100597.91;5480844;26;19939;-73
2024/04/09 12:25:48;;;;;;;;;;;;;;;13.78;53.23;100592.41;5451306;26;19936;-73
2024/04/09 12:28:13;;;;;;;;;;;;;;;13.26;53.60;100608.88;5487007;26;19952;-73